createdAt,value
2018-01-05T00:01:48.795Z,58.09
2018-01-05T00:04:17.184Z,61.30
2018-01-05T00:06:45.564Z,59.07
2018-01-05T00:09:13.951Z,60.64
2018-01-05T00:11:42.323Z,60.13
2018-01-05T00:14:10.676Z,60.07
2018-01-05T00:16:39.056Z,56.40
2018-01-05T00:19:07.424Z,60.10
2018-01-05T00:21:35.769Z,57.36
2018-01-05T00:24:04.157Z,59.91
2018-01-05T00:26:32.502Z,64.49
2018-01-05T00:29:00.879Z,64.36
2018-01-05T00:31:29.267Z,64.00
2018-01-05T00:33:57.622Z,62.25
2018-01-05T00:36:25.975Z,62.66
2018-01-05T00:38:54.335Z,59.07
2018-01-05T00:41:22.735Z,62.11
2018-01-05T00:43:51.096Z,62.01
2018-01-05T00:46:19.459Z,61.53
2018-01-05T00:48:47.808Z,63.02
2018-01-05T00:51:16.158Z,62.56
2018-01-05T00:53:44.553Z,61.71
2018-01-05T00:56:12.900Z,61.64
2018-01-05T00:58:41.293Z,60.82
2018-01-05T01:01:09.677Z,60.21
2018-01-05T01:03:38.143Z,61.24
2018-01-05T01:06:06.515Z,62.87
2018-01-05T01:08:34.886Z,62.53
2018-01-05T01:11:03.250Z,62.86
2018-01-05T01:13:31.656Z,62.96
2018-01-05T01:16:00.029Z,63.28
2018-01-05T01:18:28.431Z,63.91
2018-01-05T01:20:56.792Z,63.56
2018-01-05T01:23:25.143Z,62.73
2018-01-05T01:25:53.511Z,64.23
2018-01-05T01:28:21.868Z,63.99
2018-01-05T01:30:50.264Z,64.49
2018-01-05T01:33:18.612Z,65.46
2018-01-05T01:35:46.951Z,63.27
2018-01-05T01:38:15.299Z,64.34
2018-01-05T01:40:43.659Z,61.99
2018-01-05T01:43:12.035Z,61.55
2018-01-05T01:45:40.407Z,62.21
2018-01-05T01:48:08.774Z,62.64
2018-01-05T01:50:37.152Z,61.79
2018-01-05T01:53:05.618Z,62.08
2018-01-05T01:55:33.992Z,63.03
2018-01-05T01:58:02.399Z,61.66
2018-01-05T02:00:30.753Z,62.23
2018-01-05T02:02:59.101Z,62.29
2018-01-05T02:05:27.464Z,61.54
2018-01-05T02:07:55.852Z,63.15
2018-01-05T02:10:24.234Z,60.57
2018-01-05T02:12:52.591Z,63.34
2018-01-05T02:15:20.943Z,63.08
2018-01-05T02:17:49.323Z,64.16
2018-01-05T02:20:17.681Z,63.14
2018-01-05T02:22:46.062Z,64.43
2018-01-05T02:25:14.427Z,64.54
2018-01-05T02:27:42.808Z,65.54
2018-01-05T02:30:11.163Z,65.09
2018-01-05T02:32:40.379Z,63.42
2018-01-05T02:35:08.754Z,62.39
2018-01-05T02:37:37.108Z,62.16
2018-01-05T02:40:05.507Z,61.52
2018-01-05T02:42:33.865Z,63.74
2018-01-05T02:45:02.243Z,62.29
2018-01-05T02:47:30.594Z,61.97
2018-01-05T02:49:58.971Z,62.70
2018-01-05T02:52:27.356Z,63.05
2018-01-05T02:54:55.711Z,63.42
2018-01-05T02:57:24.067Z,61.14
2018-01-05T02:59:52.468Z,63.62
2018-01-05T03:02:20.828Z,64.20
2018-01-05T03:04:49.199Z,64.06
2018-01-05T03:07:17.561Z,64.96
2018-01-05T03:09:45.917Z,65.80
2018-01-05T03:12:14.272Z,65.29
2018-01-05T03:14:42.650Z,65.20
2018-01-05T03:17:11.030Z,61.88
2018-01-05T03:19:39.393Z,63.47
2018-01-05T03:22:07.735Z,60.11
2018-01-05T03:24:36.116Z,61.48
2018-01-05T03:27:04.484Z,63.13
2018-01-05T03:29:32.938Z,63.76
2018-01-05T03:32:01.319Z,62.41
2018-01-05T03:34:29.687Z,62.31
2018-01-05T03:36:58.109Z,63.11
2018-01-05T03:39:26.462Z,63.46
2018-01-05T03:41:54.815Z,65.14
2018-01-05T03:44:23.202Z,65.32
2018-01-05T03:46:51.622Z,63.92
2018-01-05T03:49:19.987Z,62.75
2018-01-05T03:51:48.336Z,63.04
2018-01-05T03:54:16.687Z,62.10
2018-01-05T03:56:45.039Z,65.86
2018-01-05T03:59:13.431Z,64.35
2018-01-05T04:01:41.907Z,63.31
2018-01-05T04:04:10.289Z,62.03
2018-01-05T04:06:38.654Z,63.75
2018-01-05T04:09:07.022Z,65.15
2018-01-05T04:11:35.374Z,61.82
2018-01-05T04:14:03.715Z,61.80
2018-01-05T04:16:32.160Z,63.05
2018-01-05T04:19:00.541Z,64.02
2018-01-05T04:21:28.883Z,65.15
2018-01-05T04:23:57.227Z,63.11
2018-01-05T04:26:25.595Z,60.77
2018-01-05T04:28:53.975Z,65.42
2018-01-05T04:31:22.319Z,63.67
2018-01-05T04:33:50.717Z,63.75
2018-01-05T04:36:19.087Z,64.66
2018-01-05T04:38:47.440Z,64.58
2018-01-05T04:41:15.781Z,65.48
2018-01-05T04:43:44.203Z,63.20
2018-01-05T04:46:12.590Z,64.09
2018-01-05T04:48:40.931Z,66.68
2018-01-05T04:51:09.281Z,67.24
2018-01-05T04:53:37.641Z,68.13
2018-01-05T04:56:06.037Z,65.53
2018-01-05T04:58:34.452Z,67.65
2018-01-05T05:01:02.785Z,66.79
2018-01-05T05:03:31.153Z,68.83
2018-01-05T05:05:59.533Z,70.00
2018-01-05T05:08:27.872Z,67.90
2018-01-05T05:10:56.276Z,69.61
2018-01-05T05:13:24.631Z,68.27
2018-01-05T05:15:52.987Z,66.12
2018-01-05T05:18:21.344Z,67.97
2018-01-05T05:20:49.699Z,67.59
2018-01-05T05:23:18.081Z,69.64
2018-01-05T05:25:46.447Z,67.15
2018-01-05T05:28:14.795Z,69.19
2018-01-05T05:30:43.131Z,70.20
2018-01-05T05:33:11.724Z,71.09
2018-01-05T05:35:40.121Z,70.08
2018-01-05T05:38:08.464Z,70.44
2018-01-05T05:40:36.839Z,72.01
2018-01-05T05:43:05.188Z,69.56
2018-01-05T05:45:33.557Z,71.67
2018-01-05T05:48:01.924Z,68.81
2018-01-05T05:50:30.263Z,70.70
2018-01-05T05:52:58.624Z,71.65
2018-01-05T05:55:26.962Z,71.84
2018-01-05T05:57:55.336Z,70.76
2018-01-05T06:00:23.752Z,70.88
2018-01-05T06:02:52.109Z,70.30
2018-01-05T06:05:20.510Z,71.45
2018-01-05T06:07:48.863Z,70.33
2018-01-05T06:10:17.229Z,71.76
2018-01-05T06:12:45.619Z,72.09
2018-01-05T06:15:13.977Z,74.19
2018-01-05T06:17:42.323Z,72.34
2018-01-05T06:20:10.672Z,70.70
2018-01-05T06:22:39.027Z,72.77
2018-01-05T06:25:07.414Z,72.20
2018-01-05T06:27:35.784Z,71.31
2018-01-05T06:30:04.151Z,72.21
2018-01-05T06:32:32.522Z,70.54
2018-01-05T06:35:00.884Z,69.67
2018-01-05T06:37:29.257Z,72.09
2018-01-05T06:39:57.616Z,72.51
2018-01-05T06:42:25.960Z,72.22
2018-01-05T06:44:54.329Z,71.95
2018-01-05T06:47:22.679Z,73.96
2018-01-05T06:49:51.075Z,67.89
2018-01-05T06:52:19.439Z,70.49
2018-01-05T06:54:47.831Z,71.42
2018-01-05T06:57:16.198Z,71.78
2018-01-05T06:59:44.632Z,70.73
2018-01-05T07:02:12.982Z,69.94
2018-01-05T07:04:41.340Z,69.80
2018-01-05T07:07:09.695Z,70.39
2018-01-05T07:09:38.048Z,70.11
2018-01-05T07:12:06.498Z,70.47
2018-01-05T07:14:34.877Z,70.62
2018-01-05T07:17:03.230Z,70.10
2018-01-05T07:19:31.602Z,68.00
2018-01-05T07:22:00.021Z,70.69
2018-01-05T07:24:28.453Z,67.44
2018-01-05T07:26:56.809Z,68.68
2018-01-05T07:29:25.164Z,70.33
2018-01-05T07:31:53.537Z,70.45
2018-01-05T07:34:21.879Z,66.94
2018-01-05T07:36:50.269Z,67.13
2018-01-05T07:39:18.659Z,68.05
2018-01-05T07:41:47.012Z,65.90
2018-01-05T07:44:15.392Z,67.45
2018-01-05T07:46:43.744Z,69.45
2018-01-05T07:49:12.214Z,69.68
2018-01-05T07:51:40.596Z,64.32
2018-01-05T07:54:08.981Z,69.96
2018-01-05T07:56:37.353Z,68.43
2018-01-05T07:59:05.699Z,69.26
2018-01-05T08:01:34.091Z,66.24
2018-01-05T08:04:02.456Z,68.22
2018-01-05T08:06:30.863Z,67.37
2018-01-05T08:08:59.255Z,65.66
2018-01-05T08:11:27.634Z,65.02
2018-01-05T08:13:56.005Z,67.71
2018-01-05T08:16:24.421Z,66.21
2018-01-05T08:18:52.808Z,68.07
2018-01-05T08:21:21.164Z,67.59
2018-01-05T08:23:49.737Z,66.15
2018-01-05T08:26:18.097Z,67.62
2018-01-05T08:28:46.490Z,67.42
2018-01-05T08:31:14.874Z,65.28
2018-01-05T08:33:43.242Z,66.60
2018-01-05T08:36:11.595Z,64.35
2018-01-05T08:38:40.039Z,65.09
2018-01-05T08:41:08.437Z,66.73
2018-01-05T08:43:36.795Z,67.13
2018-01-05T08:46:05.295Z,68.06
2018-01-05T08:48:33.650Z,64.08
2018-01-05T08:51:02.003Z,66.19
2018-01-05T08:53:30.372Z,64.43
2018-01-05T08:55:58.751Z,65.29
2018-01-05T08:58:27.175Z,67.62
2018-01-05T09:00:55.559Z,64.74
2018-01-05T09:03:23.922Z,64.33
2018-01-05T09:05:52.267Z,67.26
2018-01-05T09:08:20.619Z,66.06
2018-01-05T09:10:48.999Z,66.05
2018-01-05T09:13:17.377Z,65.75
2018-01-05T09:15:45.775Z,67.65
2018-01-05T09:18:54.551Z,64.67
2018-01-05T09:21:23.080Z,65.99
2018-01-05T09:23:51.448Z,65.23
2018-01-05T09:26:20.759Z,64.54
2018-01-05T09:28:49.132Z,65.48
2018-01-05T09:31:17.512Z,64.20
2018-01-05T09:33:45.912Z,63.74
2018-01-05T09:36:14.739Z,63.70
2018-01-05T09:38:43.095Z,63.94
2018-01-05T09:41:11.465Z,63.45
2018-01-05T09:43:39.828Z,62.16
2018-01-05T09:46:08.316Z,63.15
2018-01-05T09:48:36.789Z,61.00
2018-01-05T09:51:05.147Z,61.38
2018-01-05T09:53:33.534Z,61.33
2018-01-05T09:56:01.892Z,63.35
2018-01-05T09:58:30.304Z,61.13
2018-01-05T10:00:58.714Z,62.44
2018-01-05T10:03:27.084Z,63.26
2018-01-05T10:05:55.451Z,62.83
2018-01-05T10:08:23.913Z,63.20
2018-01-05T10:10:52.310Z,61.43
2018-01-05T10:13:20.669Z,63.04
2018-01-05T10:15:49.029Z,63.17
2018-01-05T10:18:17.421Z,61.35
2018-01-05T10:20:45.772Z,60.74
2018-01-05T10:23:14.159Z,58.58
2018-01-05T10:25:42.521Z,60.89
2018-01-05T10:28:10.888Z,61.16
2018-01-05T10:30:39.254Z,61.29
2018-01-05T10:33:07.636Z,60.65
2018-01-05T10:35:36.052Z,61.97
2018-01-05T10:38:04.412Z,60.64
2018-01-05T10:40:32.779Z,59.47
2018-01-05T10:43:01.173Z,62.91
2018-01-05T10:45:29.532Z,60.94
2018-01-05T10:47:57.922Z,61.81
2018-01-05T10:50:26.291Z,61.24
2018-01-05T10:52:54.659Z,61.05
2018-01-05T10:55:23.007Z,61.66
2018-01-05T10:57:51.363Z,59.00
2018-01-05T11:00:19.768Z,59.43
2018-01-05T11:02:48.134Z,58.90
2018-01-05T11:05:16.544Z,61.25
2018-01-05T11:07:44.894Z,60.45
2018-01-05T11:10:13.247Z,64.16
2018-01-05T11:12:41.785Z,59.06
2018-01-05T11:15:10.142Z,59.10
2018-01-05T11:17:38.503Z,60.31
2018-01-05T11:20:06.884Z,59.57
2018-01-05T11:22:35.241Z,60.33
2018-01-05T11:25:03.687Z,62.20
2018-01-05T11:27:32.060Z,62.84
2018-01-05T11:30:00.427Z,60.08
2018-01-05T11:32:28.792Z,61.82
2018-01-05T11:34:57.176Z,59.74
2018-01-05T11:37:25.565Z,60.74
2018-01-05T11:39:54.048Z,59.32
2018-01-05T11:42:22.417Z,60.93
2018-01-05T11:44:50.845Z,59.13
2018-01-05T11:47:19.283Z,57.80
2018-01-05T11:49:47.677Z,58.20
2018-01-05T11:52:16.027Z,58.41
2018-01-05T11:54:44.379Z,57.74
2018-01-05T11:57:12.816Z,59.53
2018-01-05T11:59:41.277Z,61.02
2018-01-05T12:02:09.625Z,60.20
2018-01-05T12:04:38.019Z,59.50
2018-01-05T12:07:06.374Z,62.35
2018-01-05T12:09:34.770Z,61.55
2018-01-05T12:12:03.154Z,59.61
2018-01-05T12:14:31.528Z,60.90
2018-01-05T12:16:59.931Z,62.61
2018-01-05T12:19:28.292Z,61.23
2018-01-05T12:21:56.674Z,61.04
2018-01-05T12:24:25.027Z,59.48
2018-01-05T12:26:53.409Z,61.17
2018-01-05T12:29:21.810Z,61.95
2018-01-05T12:31:50.175Z,61.44
2018-01-05T12:34:18.561Z,62.92
2018-01-05T12:36:46.903Z,61.54
2018-01-05T12:39:15.302Z,58.74
2018-01-05T12:41:43.720Z,59.44
2018-01-05T12:44:12.091Z,57.86
2018-01-05T12:46:40.487Z,58.10
2018-01-05T12:49:08.868Z,57.45
2018-01-05T12:51:37.225Z,58.90
2018-01-05T12:54:05.579Z,57.10
2018-01-05T12:56:33.957Z,56.99
2018-01-05T12:59:02.350Z,54.43
2018-01-05T13:01:30.712Z,56.39
2018-01-05T13:03:59.116Z,55.28
2018-01-05T13:06:27.527Z,55.85
2018-01-05T13:08:55.912Z,53.41
2018-01-05T13:11:24.283Z,51.92
2018-01-05T13:13:52.655Z,52.97
2018-01-05T13:16:21.064Z,52.01
2018-01-05T13:18:49.413Z,52.62
2018-01-05T13:21:17.790Z,54.38
2018-01-05T13:23:46.136Z,52.79
2018-01-05T13:26:14.517Z,52.05
2018-01-05T13:28:42.910Z,52.67
2018-01-05T13:31:11.315Z,52.11
2018-01-05T13:33:39.676Z,52.90
2018-01-05T13:36:08.047Z,55.14
2018-01-05T13:38:36.455Z,55.62
2018-01-05T13:41:04.830Z,54.80
2018-01-05T13:43:33.202Z,56.88
2018-01-05T13:46:01.583Z,54.95
2018-01-05T13:48:29.941Z,54.24
2018-01-05T13:50:58.308Z,58.30
2018-01-05T13:53:26.723Z,55.18
2018-01-05T13:55:55.151Z,56.59
2018-01-05T13:58:23.643Z,57.84
2018-01-05T14:00:52.029Z,60.50
2018-01-05T14:03:20.476Z,58.18
2018-01-05T14:05:48.982Z,58.63
2018-01-05T14:08:17.351Z,58.52
2018-01-05T14:10:45.791Z,58.36
2018-01-05T14:13:14.144Z,59.12
2018-01-05T14:15:42.507Z,58.71
2018-01-05T14:18:10.900Z,56.21
2018-01-05T14:20:39.328Z,53.60
2018-01-05T14:23:07.803Z,54.89
2018-01-05T14:25:36.174Z,54.98
2018-01-05T14:28:04.542Z,55.59
2018-01-05T14:30:32.912Z,54.17
2018-01-05T14:33:01.340Z,56.55
2018-01-05T14:35:29.741Z,57.57
2018-01-05T14:37:58.129Z,55.31
2018-01-05T14:40:26.485Z,55.04
2018-01-05T14:42:54.843Z,52.58
2018-01-05T14:45:23.200Z,52.61
2018-01-05T14:47:52.532Z,54.27
2018-01-05T14:50:20.899Z,54.12
2018-01-05T14:52:49.244Z,53.60
2018-01-05T14:55:17.610Z,54.70
2018-01-05T14:57:45.960Z,56.82
2018-01-05T15:00:14.456Z,53.90
2018-01-05T15:02:42.848Z,57.38
2018-01-05T15:05:11.208Z,56.54
2018-01-05T15:07:39.560Z,53.91
2018-01-05T15:10:07.915Z,51.89
2018-01-05T15:12:36.300Z,52.39
2018-01-05T15:15:04.674Z,52.55
2018-01-05T15:17:33.073Z,53.04
2018-01-05T15:20:01.451Z,51.32
2018-01-05T15:22:29.811Z,51.19
2018-01-05T15:24:58.179Z,53.15
2018-01-05T15:27:26.544Z,52.47
2018-01-05T15:29:54.936Z,55.54
2018-01-05T15:32:23.387Z,53.63
2018-01-05T15:34:51.747Z,55.77
2018-01-05T15:37:20.121Z,58.21
2018-01-05T15:39:48.619Z,58.11
2018-01-05T15:42:16.994Z,58.74
2018-01-05T15:44:45.357Z,60.61
2018-01-05T15:47:13.700Z,59.18
2018-01-05T15:49:42.127Z,55.90
2018-01-05T15:52:10.503Z,57.69
2018-01-05T15:54:38.921Z,56.18
2018-01-05T15:57:07.309Z,58.27
2018-01-05T15:59:35.662Z,57.46
2018-01-05T16:02:04.044Z,58.41
2018-01-05T16:04:32.401Z,59.25
2018-01-05T16:07:00.801Z,56.36
2018-01-05T16:09:29.169Z,54.35
2018-01-05T16:11:57.583Z,56.80
2018-01-05T16:14:26.387Z,57.57
2018-01-05T16:16:54.751Z,58.05
2018-01-05T16:19:23.123Z,57.39
2018-01-05T16:21:51.479Z,56.43
2018-01-05T16:24:20.022Z,56.59
2018-01-05T16:26:48.399Z,55.02
2018-01-05T16:29:16.755Z,54.31
2018-01-05T16:31:45.117Z,53.96
2018-01-05T16:34:13.507Z,54.04
2018-01-05T16:36:41.900Z,54.26
2018-01-05T16:39:10.264Z,56.47
2018-01-05T16:41:38.655Z,61.79
2018-01-05T16:44:07.018Z,61.36
2018-01-05T16:46:35.389Z,60.70
2018-01-05T16:49:03.786Z,60.84
2018-01-05T16:51:32.159Z,63.12
2018-01-05T16:54:00.548Z,63.48
2018-01-05T16:56:28.940Z,62.00
2018-01-05T16:58:57.296Z,60.77
2018-01-05T17:01:25.675Z,62.08
2018-01-05T17:03:54.070Z,62.81
2018-01-05T17:06:22.476Z,60.01
2018-01-05T17:08:50.855Z,59.28
2018-01-05T17:11:19.224Z,62.39
2018-01-05T17:13:47.607Z,63.34
2018-01-05T17:16:15.971Z,58.57
2018-01-05T17:18:44.325Z,55.64
2018-01-05T17:21:12.672Z,56.44
2018-01-05T17:23:41.107Z,57.15
2018-01-05T17:26:09.609Z,55.67
2018-01-05T17:28:37.962Z,59.57
2018-01-05T17:31:06.333Z,61.03
2018-01-05T17:33:34.728Z,58.56
2018-01-05T17:36:03.126Z,62.06
2018-01-05T17:38:31.516Z,59.13
2018-01-05T17:40:59.875Z,61.24
2018-01-05T17:43:28.247Z,62.69
2018-01-05T17:45:56.602Z,61.91
2018-01-05T17:48:24.964Z,61.74
2018-01-05T17:50:53.387Z,63.67
2018-01-05T17:53:21.737Z,61.99
2018-01-05T17:55:50.109Z,61.19
2018-01-05T17:58:18.464Z,59.16
2018-01-05T18:00:46.821Z,58.61
2018-01-05T18:03:15.312Z,58.64
2018-01-05T18:05:43.764Z,63.18
2018-01-05T18:08:12.143Z,65.06
2018-01-05T18:10:40.553Z,66.35
2018-01-05T18:13:08.912Z,63.01
2018-01-05T18:15:37.351Z,62.11
2018-01-05T18:18:05.700Z,64.08
2018-01-05T18:20:34.073Z,67.17
2018-01-05T18:23:02.439Z,65.34
2018-01-05T18:25:30.795Z,66.21
2018-01-05T18:27:59.187Z,67.00
2018-01-05T18:30:27.576Z,66.76
2018-01-05T18:32:55.994Z,65.53
2018-01-05T18:35:24.582Z,63.90
2018-01-05T18:37:52.972Z,66.36
2018-01-05T18:40:21.393Z,63.94
2018-01-05T18:42:49.762Z,61.70
2018-01-05T18:45:18.134Z,65.45
2018-01-05T18:47:46.495Z,63.48
2018-01-05T18:50:14.843Z,63.20
2018-01-05T18:52:43.248Z,63.04
2018-01-05T18:55:11.597Z,65.51
2018-01-05T18:57:39.958Z,62.44
2018-01-05T19:00:08.303Z,64.64
2018-01-05T19:02:36.724Z,63.52
2018-01-05T19:05:05.100Z,60.58
2018-01-05T19:07:33.447Z,62.46
2018-01-05T19:10:01.861Z,63.50
2018-01-05T19:12:30.216Z,63.64
2018-01-05T19:14:58.654Z,60.07
2018-01-05T19:17:27.040Z,61.22
2018-01-05T19:19:55.395Z,61.96
2018-01-05T19:22:23.745Z,61.60
2018-01-05T19:24:52.123Z,60.40
2018-01-05T19:27:20.481Z,57.72
2018-01-05T19:29:48.840Z,59.95
2018-01-05T19:32:17.198Z,59.79
2018-01-05T19:34:45.587Z,61.09
2018-01-05T19:37:14.016Z,61.98
2018-01-05T19:39:42.588Z,64.16
2018-01-05T19:42:10.973Z,66.42
2018-01-05T19:44:39.348Z,65.52
2018-01-05T19:47:07.732Z,66.10
2018-01-05T19:49:36.081Z,65.04
2018-01-05T19:52:04.471Z,66.12
2018-01-05T19:54:32.836Z,65.19
2018-01-05T19:57:01.233Z,64.15
2018-01-05T19:59:29.587Z,65.61
2018-01-05T20:01:57.940Z,63.78
2018-01-05T20:04:26.339Z,61.85
2018-01-05T20:06:54.697Z,63.86
2018-01-05T20:09:23.063Z,59.84
2018-01-05T20:11:51.410Z,64.30
2018-01-05T20:14:19.775Z,64.19
2018-01-05T20:16:48.160Z,61.96
2018-01-05T20:19:16.530Z,63.28
2018-01-05T20:21:44.885Z,64.89
2018-01-05T20:24:13.240Z,64.43
2018-01-05T20:26:41.591Z,66.79
2018-01-05T20:29:09.982Z,64.32
2018-01-05T20:31:38.367Z,66.27
2018-01-05T20:34:06.755Z,66.23
2018-01-05T20:36:35.116Z,64.25
2018-01-05T20:39:03.472Z,64.21
2018-01-05T20:41:31.894Z,67.31
2018-01-05T20:44:00.263Z,66.95
2018-01-05T20:46:28.619Z,63.75
2018-01-05T20:48:56.983Z,69.37
2018-01-05T20:51:25.348Z,69.71
2018-01-05T20:53:53.796Z,67.08
2018-01-05T20:56:22.204Z,67.68
2018-01-05T20:58:50.569Z,65.63
2018-01-05T21:01:18.928Z,65.26
2018-01-05T21:03:47.347Z,66.17
2018-01-05T21:06:15.732Z,68.19
2018-01-05T21:11:28.116Z,67.66
2018-01-05T21:13:56.524Z,68.37
2018-01-05T21:16:25.148Z,67.77
2018-01-05T21:18:53.528Z,69.27
2018-01-05T21:21:21.951Z,70.68
2018-01-05T21:23:50.300Z,68.54
2018-01-05T21:26:18.847Z,68.29
2018-01-05T21:28:47.195Z,69.69
2018-01-05T21:31:15.606Z,67.87
2018-01-05T21:33:43.991Z,67.17
2018-01-05T21:36:12.384Z,65.76
2018-01-05T21:38:40.758Z,67.87
2018-01-05T21:41:09.167Z,64.60
2018-01-05T21:43:37.527Z,63.24
2018-01-05T21:46:05.920Z,65.55
2018-01-05T21:48:34.319Z,66.78
2018-01-05T21:51:02.672Z,65.64
2018-01-05T21:53:31.048Z,65.33
2018-01-05T21:55:59.404Z,65.83
2018-01-05T21:58:27.775Z,62.93
2018-01-05T22:00:56.144Z,61.44
2018-01-05T22:03:24.512Z,63.47
2018-01-05T22:05:52.911Z,63.00
2018-01-05T22:08:21.263Z,62.94
2018-01-05T22:10:49.621Z,65.41
2018-01-05T22:13:17.991Z,69.46
2018-01-05T22:15:46.384Z,70.19
2018-01-05T22:18:14.779Z,68.02
2018-01-05T22:20:43.125Z,65.75
2018-01-05T22:23:11.694Z,66.68
2018-01-05T22:25:40.062Z,64.24
2018-01-05T22:28:08.440Z,65.91
2018-01-05T22:30:36.816Z,66.37
2018-01-05T22:33:05.177Z,66.00
2018-01-05T22:35:33.531Z,66.23
2018-01-05T22:38:01.899Z,68.54
2018-01-05T22:40:30.255Z,64.76
2018-01-05T22:42:58.724Z,63.38
2018-01-05T22:45:27.075Z,61.56
2018-01-05T22:47:55.472Z,62.11
2018-01-05T22:50:23.828Z,63.96
2018-01-05T22:52:52.247Z,64.19
2018-01-05T22:55:20.620Z,66.69
2018-01-05T22:57:48.961Z,64.00
2018-01-05T23:00:17.343Z,63.20
2018-01-05T23:02:45.690Z,64.46
2018-01-05T23:05:14.156Z,66.14
2018-01-05T23:07:42.494Z,64.15
2018-01-05T23:10:10.864Z,63.91
2018-01-05T23:12:39.260Z,64.57
2018-01-05T23:15:07.632Z,65.41
2018-01-05T23:17:36.032Z,64.39
2018-01-05T23:20:04.363Z,65.97
2018-01-05T23:22:32.765Z,63.60
2018-01-05T23:25:01.179Z,65.21
2018-01-05T23:27:29.617Z,65.19
2018-01-05T23:29:57.980Z,62.97
2018-01-05T23:32:26.343Z,64.26
2018-01-05T23:34:54.698Z,62.21
2018-01-05T23:37:23.072Z,59.31
2018-01-05T23:39:51.426Z,59.10
2018-01-05T23:42:19.783Z,59.74
2018-01-05T23:44:48.150Z,63.79
2018-01-05T23:47:16.503Z,63.51
2018-01-05T23:49:47.844Z,63.06
2018-01-05T23:52:16.208Z,63.74
2018-01-05T23:54:44.592Z,62.40
2018-01-05T23:57:12.969Z,62.57
